Latest Weather Observations for Keith West

IDS60801

Issued at 10:31 am CST Tuesday 3 May 2016 (issued every 30 minutes, with the page automatically refreshed every 10 minutes)

About weather observations | Map of weather stations | Latest weather observations for SA | Other Formats
Station Details ID: 025557 Name: MUNKORA Lat: -36.11 Lon: 140.33 Height: 27.0 m
Data from the previous 72 hours. | See also: Recent months at Keith West
Date/Time
CST
Temp
°C
App
Temp
°C
Dew
Point
Rel
Hum
%
Delta-T
°C
Wind Press
QNH
hPa
Press
MSL
hPa
Rain
since 9 am
mm
Dir
 
Spd
km/h
Gust
km/h
Spd
kts
Gust
kts
03/10:30am 17.2 11.8 12.9 76 2.4 WNW 33 46 18 25 1004.0 1004.0 1.0
03/10:00am 15.0 11.1 13.2 89 1.0 NW 26 39 14 21 1004.0 1004.0 1.0
03/09:49am 14.9 10.1 12.9 88 1.1 NW 30 56 16 30 1004.0 1004.0 1.0
03/09:30am 14.4 8.5 12.3 87 1.1 NW 35 46 19 25 1003.9 1003.9 0.0
03/09:00am 15.2 7.3 11.6 79 1.9 NNW 44 61 24 33 1003.4 1003.4 0.0
03/08:30am 16.3 9.5 10.6 69 3.0 NNW 37 50 20 27 1003.1 1003.1 0.0
03/08:00am 15.8 8.5 10.3 70 2.9 NNW 39 54 21 29 1003.3 1003.3 0.0
03/07:30am 14.7 9.1 10.1 74 2.4 NNW 30 39 16 21 1003.2 1003.2 0.0
03/07:00am 14.4 8.3 9.8 74 2.4 N 32 41 17 22 1003.0 1003.0 0.0
03/06:30am 13.9 8.6 9.7 76 2.2 NNW 28 35 15 19 1003.3 1003.3 0.0
03/06:00am 14.2 8.9 9.8 75 2.3 NNW 28 35 15 19 1003.9 1003.9 0.0
03/05:30am 14.1 8.7 9.5 74 2.4 NNW 28 35 15 19 1004.0 1004.0 0.0
03/05:00am 14.4 8.3 9.6 73 2.5 NNW 32 39 17 21 1003.7 1003.7 0.0
03/04:30am 14.5 8.8 9.7 73 2.5 NNW 30 41 16 22 1003.7 1003.7 0.0
03/04:00am 14.6 8.6 10.2 75 2.3 N 32 44 17 24 1003.7 1003.7 0.0
03/03:30am 14.5 9.0 10.5 77 2.1 N 30 37 16 20 1004.1 1004.1 0.0
03/03:00am 14.3 8.8 10.5 78 2.0 N 30 41 16 22 1004.4 1004.4 0.0
03/02:30am 14.1 9.0 10.5 79 1.9 N 28 35 15 19 1004.8 1004.8 0.0
03/02:00am 13.8 9.6 9.8 77 2.1 N 22 32 12 17 1005.5 1005.5 0.0
03/01:30am 13.9 8.9 9.7 76 2.2 N 26 33 14 18 1006.1 1006.1 0.0
03/01:00am 14.6 9.4 10.4 76 2.2 NNW 28 39 15 21 1006.5 1006.5 0.0
03/12:30am 14.2 10.2 10.6 79 1.9 N 22 30 12 16 1006.8 1006.8 0.0
03/12:00am 14.5 10.7 11.3 81 1.7 N 22 30 12 16 1007.1 1007.1 0.0
 
Date/Time
CST
Temp
°C
App
Temp
°C
Dew
Point
Rel
Hum
%
Delta-T
°C
Wind Press
QNH
hPa
Press
MSL
hPa
Rain
since 9 am
mm
Dir
 
Spd
km/h
Gust
km/h
Spd
kts
Gust
kts
02/11:30pm 15.0 9.9 11.8 81 1.7 NNW 30 39 16 21 1007.6 1007.6 0.0
02/11:00pm 15.9 9.8 11.7 76 2.3 NNW 35 43 19 23 1007.8 1007.8 0.0
02/10:30pm 16.1 11.6 11.3 73 2.6 NNW 26 33 14 18 1008.4 1008.4 0.0
02/10:00pm 16.3 10.9 11.0 71 2.8 NNW 30 39 16 21 1008.4 1008.4 0.0
02/09:36pm 16.1 10.3 10.8 71 2.8 NNW 32 52 17 28 1008.5 1008.5 0.0
02/09:30pm 15.9 10.5 10.9 72 2.7 NNW 30 39 16 21 1008.5 1008.5 0.0
02/09:00pm 16.3 10.2 10.6 69 3.0 NNW 33 44 18 24 1008.6 1008.6 0.0
02/08:30pm 16.5 10.8 9.9 65 3.5 NNW 30 43 16 23 1008.6 1008.6 0.0
02/08:00pm 16.3 11.6 9.3 63 3.6 NNW 24 30 13 16 1008.7 1008.7 0.0
02/07:30pm 16.5 11.8 9.2 62 3.8 NNW 24 32 13 17 1008.8 1008.8 0.0
02/07:00pm 16.2 12.2 9.2 63 3.6 NNW 20 26 11 14 1009.1 1009.1 0.0
02/06:30pm 17.1 12.7 9.0 59 4.2 NNW 22 28 12 15 1008.9 1008.9 0.0
02/06:00pm 17.5 12.3 8.9 57 4.5 NW 26 33 14 18 1008.7 1008.7 0.0
02/05:30pm 18.0 12.4 8.8 55 4.8 NW 28 35 15 19 1008.5 1008.5 0.0
02/05:00pm 18.6 11.5 8.0 50 5.4 NW 35 46 19 25 1008.6 1008.6 0.0
02/04:30pm 19.8 12.7 7.9 46 6.1 NW 35 46 19 25 1008.6 1008.6 0.0
02/04:00pm 19.9 12.0 7.9 46 6.2 NW 39 50 21 27 1008.8 1008.8 0.0
02/03:30pm 19.8 12.7 8.2 47 6.0 NW 35 44 19 24 1009.0 1009.0 0.0
02/03:00pm 19.6 12.3 7.4 45 6.2 NW 35 46 19 25 1009.1 1009.1 0.0
02/02:30pm 19.9 13.0 7.3 44 6.4 NW 33 48 18 26 1009.2 1009.2 0.0
02/02:00pm 19.8 12.7 7.9 46 6.1 NW 35 46 19 25 1009.6 1009.6 0.0
02/01:30pm 19.8 12.6 7.5 45 6.3 NW 35 44 19 24 1010.1 1010.1 0.0
02/01:00pm 18.7 11.9 7.5 48 5.7 NW 33 50 18 27 1010.3 1010.3 0.0
02/12:30pm 18.3 11.6 8.0 51 5.3 NW 33 41 18 22 1010.8 1010.8 0.0
02/12:00pm 19.1 12.3 7.8 48 5.8 NW 33 43 18 23 1011.3 1011.3 0.0
02/11:30am 18.3 12.1 8.0 51 5.3 NNW 30 39 16 21 1011.7 1011.7 0.0
02/11:00am 17.6 11.0 7.9 53 4.9 NW 32 48 17 26 1012.2 1012.2 0.0
02/10:30am 17.3 10.1 7.6 53 4.9 NNW 35 46 19 25 1012.4 1012.4 0.0
02/10:00am 17.3 10.1 7.6 53 4.9 NNW 35 44 19 24 1012.5 1012.5 0.0
02/09:30am 16.4 9.8 7.9 57 4.3 NNW 32 39 17 21 1012.6 1012.6 0.0
02/09:00am 14.9 9.0 7.5 61 3.7 N 28 39 15 21 1012.8 1012.8 0.2
02/08:30am 13.7 7.7 7.0 64 3.3 NNW 28 35 15 19 1013.1 1013.1 0.2
02/08:00am 13.0 8.1 7.0 67 2.9 N 22 28 12 15 1013.1 1013.1 0.2
02/07:30am 12.3 8.0 6.8 69 2.6 N 19 28 10 15 1013.1 1013.1 0.2
02/07:00am 11.9 7.5 6.6 70 2.5 N 19 22 10 12 1013.1 1013.1 0.2
02/06:30am 11.8 7.8 6.7 71 2.4 N 17 20 9 11 1013.1 1013.1 0.2
02/06:00am 11.7 6.7 6.6 71 2.4 N 22 28 12 15 1013.2 1013.2 0.2
02/05:30am 11.3 7.2 6.4 72 2.3 N 17 22 9 12 1013.2 1013.2 0.2
02/05:00am 11.0 7.3 6.4 73 2.2 N 15 20 8 11 1013.5 1013.5 0.2
02/04:30am 11.3 8.9 6.8 74 2.1 N 9 15 5 8 1013.7 1013.7 0.2
02/04:00am 10.7 8.3 6.8 77 1.8 N 9 15 5 8 1014.0 1014.0 0.2
02/03:30am 10.6 7.3 6.6 76 1.9 N 13 17 7 9 1014.2 1014.2 0.2
02/03:00am 9.7 7.2 6.6 81 1.4 N 9 15 5 8 1014.5 1014.5 0.2
02/02:30am 9.5 6.1 6.0 79 1.6 N 13 15 7 8 1014.8 1014.8 0.2
02/02:00am 9.0 6.0 5.9 81 1.4 N 11 13 6 7 1015.0 1015.0 0.2
02/01:30am 9.2 5.8 5.9 80 1.5 N 13 13 7 7 1015.3 1015.3 0.2
02/01:00am 9.7 6.0 6.1 78 1.7 N 15 17 8 9 1015.5 1015.5 0.2
02/12:30am 10.4 7.1 6.5 77 1.8 NNW 13 15 7 8 1015.8 1015.8 0.2
02/12:00am 11.1 7.9 6.8 75 2.0 N 13 17 7 9 1016.1 1016.1 0.2
 
Date/Time
CST
Temp
°C
App
Temp
°C
Dew
Point
Rel
Hum
%
Delta-T
°C
Wind Press
QNH
hPa
Press
MSL
hPa
Rain
since 9 am
mm
Dir
 
Spd
km/h
Gust
km/h
Spd
kts
Gust
kts
01/11:30pm 11.0 8.6 7.1 77 1.9 N 9 13 5 7 1016.3 1016.3 0.2
01/11:00pm 10.3 8.3 7.0 80 1.6 N 7 9 4 5 1016.4 1016.4 0.2
01/10:30pm 10.1 8.1 7.0 81 1.5 N 7 9 4 5 1016.8 1016.8 0.2
01/10:00pm 8.7 6.7 6.2 84 1.1 N 6 9 3 5 1017.1 1017.1 0.2
01/09:30pm 9.0 6.7 5.9 81 1.4 N 7 9 4 5 1017.4 1017.4 0.2
01/09:00pm 8.5 5.1 6.0 84 1.1 N 13 15 7 8 1017.4 1017.4 0.2
01/08:30pm 8.7 6.9 5.4 80 1.5 NW 4 4 2 2 1017.1 1017.1 0.2
01/08:00pm 9.1 7.4 5.7 79 1.5 NW 4 6 2 3 1017.1 1017.1 0.2
01/07:30pm 8.6 6.8 5.5 81 1.4 WNW 4 6 2 3 1017.2 1017.2 0.2
01/07:00pm 9.3 7.1 5.5 77 1.7 WNW 6 6 3 3 1017.2 1017.2 0.2
01/06:30pm 10.4 8.1 5.6 72 2.2 W 7 7 4 4 1017.0 1017.0 0.2
01/06:00pm 11.3 8.6 5.8 69 2.6 W 9 11 5 6 1016.7 1016.7 0.2
01/05:30pm 13.0 9.6 5.9 62 3.3 W 13 15 7 8 1016.5 1016.5 0.2
01/05:00pm 14.5 11.0 5.3 54 4.3 WSW 13 17 7 9 1016.2 1016.2 0.2
01/04:30pm 15.8 11.7 6.0 52 4.7 WSW 17 24 9 13 1016.1 1016.1 0.2
01/04:00pm 16.4 10.7 5.1 47 5.4 WSW 24 32 13 17 1015.9 1015.9 0.2
01/03:30pm 16.6 11.3 4.9 46 5.6 WSW 22 30 12 16 1015.6 1015.6 0.2
01/03:00pm 17.1 11.0 4.8 44 5.8 WSW 26 35 14 19 1015.4 1015.4 0.2
01/02:30pm 17.6 11.5 4.9 43 6.1 WSW 26 37 14 20 1015.4 1015.4 0.2
01/02:00pm 17.0 9.9 3.7 41 6.2 WSW 30 39 16 21 1015.0 1015.0 0.2
01/01:30pm 16.9 9.4 3.2 40 6.3 WSW 32 43 17 23 1014.9 1014.9 0.2
01/01:00pm 16.6 9.1 3.7 42 6.0 WSW 32 44 17 24 1014.9 1014.9 0.2
01/12:30pm 15.7 8.6 5.3 50 4.9 WSW 32 44 17 24 1014.9 1014.9 0.2
01/12:00pm 16.4 9.0 4.8 46 5.5 WSW 33 44 18 24 1014.9 1014.9 0.2
01/11:30am 16.4 9.3 5.7 49 5.2 WSW 32 43 17 23 1014.8 1014.8 0.2
01/11:00am 15.6 9.2 6.9 56 4.3 WSW 30 43 16 23 1014.9 1014.9 0.2
01/10:30am 15.6 10.0 8.6 63 3.6 WSW 28 39 15 21 1014.7 1014.7 0.2
01/10:00am 14.1 9.1 8.1 67 3.0 WSW 24 35 13 19 1014.8 1014.8 0.2
01/09:30am 12.9 8.9 9.2 78 1.9 W 20 28 11 15 1014.6 1014.6 0.0
01/09:00am 12.4 9.8 9.4 82 1.5 WSW 13 19 7 10 1014.3 1014.3 4.4
01/08:30am 13.4 9.6 9.1 75 2.2 WNW 19 24 10 13 1013.5 1013.5 2.6
01/08:00am 12.1 9.0 8.9 81 1.6 WNW 15 20 8 11 1012.8 1012.8 2.6
01/07:30am 11.3 6.8 8.5 83 1.4 WNW 22 32 12 17 1012.1 1012.1 2.6
01/07:00am 10.9 6.8 7.8 81 1.5 WNW 19 24 10 13 1011.6 1011.6 2.4
01/06:30am 11.4 6.8 8.3 81 1.5 W 22 30 12 16 1011.1 1011.1 2.4
01/06:00am 11.4 6.7 7.9 79 1.7 NW 22 32 12 17 1010.4 1010.4 2.2
01/05:30am 12.5 7.9 8.0 74 2.2 WNW 22 32 12 17 1009.6 1009.6 2.2
01/05:00am 11.4 8.1 8.1 80 1.6 NW 15 17 8 9 1009.2 1009.2 2.2
01/04:30am 11.4 7.4 8.1 80 1.6 WNW 19 24 10 13 1008.7 1008.7 2.2
01/04:00am 12.0 6.0 8.5 79 1.7 W 30 43 16 23 1008.4 1008.4 2.2
01/03:30am 12.8 8.1 9.3 79 1.8 WNW 24 32 13 17 1007.8 1007.8 2.0
01/03:00am 13.2 7.7 9.3 77 2.0 WNW 28 37 15 20 1007.2 1007.2 2.0
01/02:30am 13.1 8.8 9.2 77 2.0 WNW 22 32 12 17 1007.0 1007.0 2.0
01/02:00am 13.7 8.3 9.4 75 2.2 WNW 28 39 15 21 1006.8 1006.8 2.0
01/01:30am 13.8 9.7 10.2 79 1.9 WNW 22 30 12 16 1006.6 1006.6 2.0
01/01:00am 14.1 9.4 10.5 79 1.9 WNW 26 35 14 19 1006.4 1006.4 2.0
01/12:30am 14.4 9.4 10.8 79 1.9 W 28 39 15 21 1006.3 1006.3 2.0
01/12:16am 14.8 8.9 11.0 78 2.0 W 33 44 18 24 1006.1 1006.1 2.0
01/12:00am 16.5 8.9 10.6 68 3.2 WNW 41 57 22 31 1006.2 1006.2 2.0
 
Date/Time
CST
Temp
°C
App
Temp
°C
Dew
Point
Rel
Hum
%
Delta-T
°C
Wind Press
QNH
hPa
Press
MSL
hPa
Rain
since 9 am
mm
Dir
 
Spd
km/h
Gust
km/h
Spd
kts
Gust
kts
30/11:35pm 17.0 11.0 10.1 64 3.6 WNW 32 52 17 28 1005.5 1005.4 2.0
30/11:30pm 17.0 10.8 9.9 63 3.8 WNW 33 46 18 25 1005.8 1005.7 2.0
30/11:05pm 17.6 9.7 9.2 58 4.4 WNW 41 61 22 33 1005.9 1005.9 2.0
30/11:00pm 17.6 8.6 9.0 57 4.5 WNW 46 61 25 33 1005.8 1005.7 2.0
30/10:40pm 18.1 10.3 9.7 58 4.4 WNW 41 61 22 33 1006.0 1006.0 2.0
30/10:30pm 18.2 9.9 9.5 57 4.6 WNW 43 61 23 33 1006.0 1006.0 2.0
30/10:24pm 17.9 11.9 10.8 63 3.8 WNW 33 57 18 31 1006.1 1006.1 2.0
30/10:00pm 16.8 11.3 12.3 75 2.5 WNW 33 43 18 23 1005.4 1005.3 1.8
30/09:49pm 17.3 11.3 12.2 72 2.8 NW 35 50 19 27 1006.4 1006.4 1.6
30/09:30pm 17.4 13.2 12.5 73 2.7 NW 26 32 14 17 1005.2 1005.1 1.4
30/09:00pm 18.3 12.3 12.1 67 3.4 NNW 35 61 19 33 1005.7 1005.6 1.0
30/08:34pm 21.2 15.1 8.1 43 6.8 N 30 59 16 32 1004.7 1004.6 0.0
30/08:30pm 21.4 17.3 8.7 44 6.7 NNE 20 39 11 21 1004.6 1004.5 0.0
30/08:29pm 21.1 17.3 9.0 46 6.4 NNE 19 39 10 21 1004.6 1004.5 0.0
30/08:00pm 17.0 14.5 9.7 62 3.8 NE 13 15 7 8 1004.9 1004.8 0.0
30/07:30pm 17.2 15.4 9.4 60 4.1 N 9 9 5 5 1005.6 1005.5 0.0
30/07:00pm 19.9 17.8 9.8 52 5.4 NNW 11 17 6 9 1005.9 1005.9 0.0
30/06:30pm 19.4 17.7 9.9 54 5.1 N 9 11 5 6 1006.1 1006.1 0.0
30/06:00pm 20.8 18.1 9.1 47 6.2 N 13 15 7 8 1005.8 1005.7 0.0
30/05:30pm 23.0 18.8 8.3 39 7.8 N 20 28 11 15 1005.7 1005.6 0.0
30/05:00pm 24.4 19.0 8.0 35 8.7 N 26 35 14 19 1006.1 1006.1 0.0
30/04:30pm 25.1 18.5 7.7 33 9.3 N 32 46 17 25 1006.4 1006.4 0.0
30/04:00pm 25.4 18.7 7.5 32 9.5 NNW 32 44 17 24 1006.8 1006.8 0.0
30/03:30pm 25.8 18.8 6.9 30 9.9 N 33 43 18 23 1007.0 1007.0 0.0
30/03:00pm 25.8 18.4 6.9 30 9.9 NNW 35 44 19 24 1007.2 1007.2 0.0
30/02:30pm 24.5 17.2 7.2 33 9.1 N 35 50 19 27 1007.8 1007.8 0.0
30/02:00pm 25.5 17.8 7.1 31 9.7 NNW 37 46 20 25 1008.1 1008.1 0.0
30/01:30pm 25.3 18.9 7.0 31 9.6 NNW 30 39 16 21 1008.6 1008.6 0.0
30/01:00pm 24.9 19.3 7.1 32 9.3 N 26 35 14 19 1009.2 1009.2 0.0
30/12:30pm 24.8 19.2 7.0 32 9.3 NNW 26 39 14 21 1010.1 1010.1 0.0
30/12:00pm 23.6 18.3 6.8 34 8.7 NNW 24 35 13 19 1010.9 1010.9 0.0
30/11:30am 23.3 18.1 7.4 36 8.3 NNW 24 32 13 17 1011.6 1011.6 0.0
30/11:00am 22.6 17.5 7.6 38 7.8 N 24 30 13 16 1012.2 1012.2 0.0

Other Formats:

Comma delimited format used in spreadsheet applications
http://www.bom.gov.au/fwo/IDS60801/IDS60801.95815.axf

JavaScript Object Notation format (JSON) in row-major order
http://www.bom.gov.au/fwo/IDS60801/IDS60801.95815.json